createdAt,value
2023-05-02T00:00:09.389Z,11.30
2023-05-02T00:00:41.204Z,11.30
2023-05-02T00:01:13.003Z,11.20
2023-05-02T00:01:45.843Z,11.30
2023-05-02T00:02:17.955Z,11.30
2023-05-02T00:02:50.194Z,11.30
2023-05-02T00:03:23.725Z,11.30
2023-05-02T00:03:55.737Z,11.30
2023-05-02T00:04:27.809Z,11.30
2023-05-02T00:05:01.043Z,11.20
2023-05-02T00:05:32.878Z,11.40
2023-05-02T00:06:04.810Z,11.20
2023-05-02T00:06:37.720Z,11.20
2023-05-02T00:07:09.590Z,11.20
2023-05-02T00:07:41.486Z,11.20
2023-05-02T00:08:14.253Z,11.20
2023-05-02T00:08:46.144Z,11.20
2023-05-02T00:09:18.071Z,11.20
2023-05-02T00:09:50.940Z,11.30
2023-05-02T00:10:22.897Z,11.20
2023-05-02T00:10:54.790Z,11.20
2023-05-02T00:11:27.567Z,11.30
2023-05-02T00:12:00.853Z,11.30
2023-05-02T00:12:32.905Z,11.30
2023-05-02T00:13:05.669Z,11.30
2023-05-02T00:13:37.505Z,11.30
2023-05-02T00:14:09.300Z,11.30
2023-05-02T00:14:42.041Z,11.30
2023-05-02T00:15:13.888Z,11.30
2023-05-02T00:15:46.074Z,11.40
2023-05-02T00:16:18.870Z,11.40
2023-05-02T00:16:50.770Z,11.40
2023-05-02T00:17:22.698Z,11.40
2023-05-02T00:17:55.782Z,11.40
2023-05-02T00:18:27.658Z,11.40
2023-05-02T00:18:59.567Z,11.40
2023-05-02T00:19:32.307Z,11.50
2023-05-02T00:20:04.910Z,11.50
2023-05-02T00:20:36.813Z,11.50
2023-05-02T00:21:09.971Z,11.40
2023-05-02T00:21:41.774Z,11.50
2023-05-02T00:22:13.666Z,11.40
2023-05-02T00:22:46.425Z,11.40
2023-05-02T00:23:18.227Z,11.40
2023-05-02T00:23:51.353Z,11.40
2023-05-02T00:24:24.110Z,11.30
2023-05-02T00:24:57.459Z,11.30
2023-05-02T00:25:29.286Z,11.30
2023-05-02T00:26:02.193Z,11.30
2023-05-02T00:26:34.005Z,11.20
2023-05-02T00:27:07.408Z,11.30
2023-05-02T00:27:40.137Z,11.30
2023-05-02T00:28:11.961Z,11.20
2023-05-02T00:28:43.726Z,11.30
2023-05-02T00:29:16.467Z,11.20
2023-05-02T00:29:48.245Z,11.20
2023-05-02T00:30:21.052Z,11.20
2023-05-02T00:30:54.288Z,11.30
2023-05-02T00:31:26.254Z,11.20
2023-05-02T00:31:58.208Z,11.20
2023-05-02T00:32:31.017Z,11.20
2023-05-02T00:33:02.953Z,11.20
2023-05-02T00:33:34.797Z,11.20
2023-05-02T00:34:07.542Z,11.10
2023-05-02T00:34:39.321Z,11.20
2023-05-02T00:35:11.706Z,11.20
2023-05-02T00:35:44.505Z,11.20
2023-05-02T00:36:16.842Z,11.20
2023-05-02T00:36:48.855Z,11.20
2023-05-02T00:37:21.640Z,11.20
2023-05-02T00:37:53.462Z,11.20
2023-05-02T00:38:26.326Z,11.20
2023-05-02T00:38:58.133Z,11.20
2023-05-02T00:39:29.955Z,11.20
2023-05-02T00:40:03.409Z,11.20
2023-05-02T00:40:45.812Z,11.20
2023-05-02T00:41:17.698Z,11.20
2023-05-02T00:41:50.539Z,11.20
2023-05-02T00:42:23.744Z,11.20
2023-05-02T00:42:55.574Z,11.20
2023-05-02T00:43:31.724Z,11.20
2023-05-02T00:44:03.559Z,11.20
2023-05-02T00:44:35.365Z,11.10
2023-05-02T00:45:09.067Z,11.10
2023-05-02T00:45:43.424Z,11.20
2023-05-02T00:46:15.564Z,11.20
2023-05-02T00:46:48.403Z,11.10
2023-05-02T00:47:20.885Z,11.10
2023-05-02T00:47:53.740Z,11.10
2023-05-02T00:48:26.258Z,11.10
2023-05-02T00:48:59.008Z,11.00
2023-05-02T00:49:31.094Z,11.00
2023-05-02T00:50:05.346Z,11.00
2023-05-02T00:50:40.375Z,11.00
2023-05-02T00:51:13.260Z,11.00
2023-05-02T00:51:45.062Z,11.00
2023-05-02T00:52:17.901Z,11.00
2023-05-02T00:52:49.669Z,11.00
2023-05-02T00:53:21.579Z,11.00
2023-05-02T00:53:54.797Z,11.00
2023-05-02T00:54:27.007Z,11.00
2023-05-02T00:54:59.464Z,11.00
2023-05-02T00:55:33.536Z,10.90
2023-05-02T00:56:06.159Z,10.90
2023-05-02T00:56:37.991Z,10.90
2023-05-02T00:57:09.845Z,10.90
2023-05-02T00:57:43.974Z,10.90
2023-05-02T00:58:19.073Z,10.90
2023-05-02T00:58:50.877Z,10.90
2023-05-02T00:59:23.649Z,10.90
2023-05-02T00:59:56.152Z,10.90
2023-05-02T01:01:03.023Z,10.90
2023-05-02T01:01:47.757Z,10.90
2023-05-02T01:02:34.991Z,11.00
2023-05-02T01:03:17.455Z,11.00
2023-05-02T01:04:01.002Z,11.00
2023-05-02T01:04:42.980Z,11.00
2023-05-02T01:05:17.677Z,10.90
2023-05-02T01:06:00.149Z,10.90
2023-05-02T01:06:45.081Z,10.90
2023-05-02T01:07:27.946Z,10.90
2023-05-02T01:08:14.928Z,10.90
2023-05-02T01:08:52.341Z,10.90
2023-05-02T01:09:34.782Z,10.90
2023-05-02T01:10:30.372Z,10.90
2023-05-02T01:11:06.923Z,10.90
2023-05-02T01:11:48.105Z,10.90
2023-05-02T01:12:28.475Z,10.80
2023-05-02T01:13:07.638Z,10.90
2023-05-02T01:13:42.538Z,10.90
2023-05-02T01:14:16.506Z,10.90
2023-05-02T01:14:54.060Z,10.90
2023-05-02T01:15:26.605Z,10.80
2023-05-02T01:16:01.718Z,10.80
2023-05-02T01:16:38.405Z,10.80
2023-05-02T01:17:13.084Z,10.80
2023-05-02T01:17:48.531Z,10.70
2023-05-02T01:18:23.682Z,10.70
2023-05-02T01:18:57.304Z,10.70
2023-05-02T01:19:34.813Z,10.70
2023-05-02T01:20:11.738Z,10.70
2023-05-02T01:20:47.242Z,10.70
2023-05-02T01:21:19.251Z,10.70
2023-05-02T01:21:52.464Z,10.80
2023-05-02T01:22:27.365Z,10.80
2023-05-02T01:23:07.230Z,10.70
2023-05-02T01:23:46.928Z,10.70
2023-05-02T01:24:25.540Z,10.70
2023-05-02T01:25:08.623Z,10.70
2023-05-02T01:25:57.258Z,10.70
2023-05-02T01:26:35.986Z,10.70
2023-05-02T01:27:16.819Z,10.70
2023-05-02T01:27:57.763Z,10.80
2023-05-02T01:28:38.721Z,10.80
2023-05-02T01:29:15.146Z,10.70
2023-05-02T01:29:51.661Z,10.70
2023-05-02T01:30:26.824Z,10.70
2023-05-02T01:31:02.166Z,10.70
2023-05-02T01:31:37.418Z,10.70
2023-05-02T01:32:10.771Z,10.70
2023-05-02T01:32:46.436Z,10.70
2023-05-02T01:33:21.125Z,10.70
2023-05-02T01:33:54.637Z,10.80
2023-05-02T01:34:30.424Z,10.80
2023-05-02T01:35:03.844Z,10.70
2023-05-02T01:35:37.914Z,10.80
2023-05-02T01:36:11.196Z,10.80
2023-05-02T01:36:46.499Z,10.80
2023-05-02T01:37:20.591Z,10.80
2023-05-02T01:37:54.556Z,10.80
2023-05-02T01:38:28.465Z,10.80
2023-05-02T01:39:03.328Z,10.80
2023-05-02T01:39:38.215Z,10.80
2023-05-02T01:40:12.035Z,10.80
2023-05-02T01:40:47.023Z,10.90
2023-05-02T01:41:20.567Z,10.90
2023-05-02T01:41:55.945Z,10.80
2023-05-02T01:42:30.331Z,10.80
2023-05-02T01:43:05.122Z,10.80
2023-05-02T01:43:39.220Z,10.80
2023-05-02T01:44:14.853Z,10.80
2023-05-02T01:44:48.129Z,10.80
2023-05-02T01:45:21.964Z,10.70
2023-05-02T01:45:57.183Z,10.70
2023-05-02T01:46:33.216Z,10.70
2023-05-02T01:47:07.463Z,10.70
2023-05-02T01:47:42.532Z,10.70
2023-05-02T01:48:16.567Z,10.70
2023-05-02T01:48:52.005Z,10.70
2023-05-02T01:49:27.143Z,10.70
2023-05-02T01:50:00.347Z,10.70
2023-05-02T01:50:32.681Z,10.70
2023-05-02T01:51:07.302Z,10.70
2023-05-02T01:51:44.253Z,10.80
2023-05-02T01:52:18.736Z,10.80
2023-05-02T01:52:53.750Z,10.80
2023-05-02T01:53:26.630Z,10.80
2023-05-02T01:54:02.280Z,10.80
2023-05-02T01:54:36.738Z,10.80
2023-05-02T01:55:13.630Z,10.80
2023-05-02T01:55:48.527Z,10.70
2023-05-02T01:56:21.420Z,10.70
2023-05-02T01:56:53.313Z,10.70
2023-05-02T01:57:26.742Z,10.70
2023-05-02T01:58:00.468Z,10.60
2023-05-02T01:58:33.227Z,10.60
2023-05-02T01:59:08.886Z,10.60
2023-05-02T01:59:44.757Z,10.60
2023-05-02T02:00:18.573Z,10.70
2023-05-02T02:00:52.671Z,10.70
2023-05-02T02:01:27.356Z,10.70
2023-05-02T02:02:02.415Z,10.70
2023-05-02T02:02:35.815Z,10.70
2023-05-02T02:03:09.386Z,10.70
2023-05-02T02:03:42.976Z,10.70
2023-05-02T02:04:16.405Z,10.70
2023-05-02T02:04:49.928Z,10.70
2023-05-02T02:05:24.843Z,10.70
2023-05-02T02:05:57.679Z,10.80
2023-05-02T02:06:29.754Z,10.80
2023-05-02T02:07:04.826Z,10.80
2023-05-02T02:07:37.127Z,10.80
2023-05-02T02:08:09.161Z,10.80
2023-05-02T02:08:42.090Z,10.80
2023-05-02T02:09:14.407Z,10.80
2023-05-02T02:09:46.478Z,10.80
2023-05-02T02:10:19.718Z,10.80
2023-05-02T02:10:59.327Z,10.80
2023-05-02T02:11:35.795Z,10.80
2023-05-02T02:12:13.394Z,10.80
2023-05-02T02:12:52.070Z,10.80
2023-05-02T02:13:30.292Z,10.80
2023-05-02T02:14:08.302Z,10.80
2023-05-02T02:14:48.233Z,10.80
2023-05-02T02:15:25.993Z,10.90
2023-05-02T02:16:02.459Z,10.80
2023-05-02T02:16:38.206Z,10.80
2023-05-02T02:17:15.130Z,10.80
2023-05-02T02:17:51.354Z,10.80
2023-05-02T02:18:26.265Z,10.80
2023-05-02T02:19:02.814Z,10.80
2023-05-02T02:19:36.181Z,10.80
2023-05-02T02:20:11.273Z,10.80
2023-05-02T02:20:45.002Z,10.70
2023-05-02T02:21:20.017Z,10.80
2023-05-02T02:21:53.221Z,10.80
2023-05-02T02:22:27.514Z,10.80
2023-05-02T02:23:04.161Z,10.80
2023-05-02T02:23:38.476Z,10.80
2023-05-02T02:24:11.504Z,10.80
2023-05-02T02:24:45.541Z,10.80
2023-05-02T02:25:18.415Z,10.70
2023-05-02T02:25:52.332Z,10.70
2023-05-02T02:26:25.172Z,10.70
2023-05-02T02:26:57.442Z,10.70
2023-05-02T02:27:29.575Z,10.70
2023-05-02T02:28:02.874Z,10.60
2023-05-02T02:28:34.941Z,10.60
2023-05-02T02:29:06.785Z,10.60
2023-05-02T02:29:40.464Z,10.60
2023-05-02T02:30:14.342Z,10.60
2023-05-02T02:30:46.272Z,10.50
2023-05-02T02:31:19.060Z,10.50
2023-05-02T02:31:50.922Z,10.60
2023-05-02T02:32:22.765Z,10.60
2023-05-02T02:32:55.625Z,10.60
2023-05-02T02:33:30.833Z,10.60
2023-05-02T02:34:03.439Z,10.60
2023-05-02T02:34:36.221Z,10.60
2023-05-02T02:35:09.374Z,10.60
2023-05-02T02:35:48.227Z,10.60
2023-05-02T02:36:31.034Z,10.60
2023-05-02T02:37:12.919Z,10.70
2023-05-02T02:37:49.908Z,10.60
2023-05-02T02:38:28.558Z,10.70
2023-05-02T02:39:10.804Z,10.60
2023-05-02T02:39:51.790Z,10.60
2023-05-02T02:40:28.617Z,10.50
2023-05-02T02:41:11.213Z,10.50
2023-05-02T02:41:51.392Z,10.50
2023-05-02T02:42:27.146Z,10.50
2023-05-02T02:43:08.027Z,10.50
2023-05-02T02:43:49.054Z,10.50
2023-05-02T02:44:28.561Z,10.50
2023-05-02T02:45:12.665Z,10.50
2023-05-02T02:45:57.040Z,10.50
2023-05-02T02:46:42.279Z,10.50
2023-05-02T02:47:22.816Z,10.50
2023-05-02T02:48:03.375Z,10.60
2023-05-02T02:48:39.222Z,10.60
2023-05-02T02:49:25.186Z,10.60
2023-05-02T02:50:11.735Z,10.60
2023-05-02T02:50:54.459Z,10.60
2023-05-02T02:51:32.647Z,10.60
2023-05-02T02:52:11.142Z,10.60
2023-05-02T02:52:51.665Z,10.60
2023-05-02T02:53:33.886Z,10.60
2023-05-02T02:54:23.064Z,10.60
2023-05-02T02:55:07.253Z,10.60
2023-05-02T02:55:44.934Z,10.60
2023-05-02T02:56:22.410Z,10.60
2023-05-02T02:57:02.682Z,10.60
2023-05-02T02:57:41.132Z,10.60
2023-05-02T02:58:22.552Z,10.60
2023-05-02T02:58:57.866Z,10.60
2023-05-02T02:59:33.937Z,10.60
2023-05-02T03:00:14.548Z,10.60
2023-05-02T03:00:49.618Z,10.60
2023-05-02T03:01:25.123Z,10.70
2023-05-02T03:02:02.919Z,10.70
2023-05-02T03:02:36.981Z,10.70
2023-05-02T03:03:10.598Z,10.70
2023-05-02T03:03:43.350Z,10.70
2023-05-02T03:04:17.627Z,10.70
2023-05-02T03:04:54.595Z,10.70
2023-05-02T03:05:26.998Z,10.60
2023-05-02T03:06:00.764Z,10.60
2023-05-02T03:06:33.024Z,10.60
2023-05-02T03:07:05.351Z,10.70
2023-05-02T03:07:38.146Z,10.70
2023-05-02T03:08:10.410Z,10.70
2023-05-02T03:08:43.443Z,10.70
2023-05-02T03:09:18.537Z,10.70
2023-05-02T03:09:50.325Z,10.80
2023-05-02T03:10:22.706Z,10.80
2023-05-02T03:10:55.990Z,10.80
2023-05-02T03:11:29.440Z,10.80
2023-05-02T03:12:01.485Z,10.70
2023-05-02T03:12:34.351Z,10.70
2023-05-02T03:13:06.144Z,10.70
2023-05-02T03:13:37.981Z,10.70
2023-05-02T03:14:10.730Z,10.70
2023-05-02T03:14:43.531Z,10.70
2023-05-02T03:15:28.911Z,10.60
2023-05-02T03:16:46.764Z,10.70
2023-05-02T03:17:19.906Z,10.70
2023-05-02T03:17:52.707Z,10.60
2023-05-02T03:18:24.582Z,10.70
2023-05-02T03:18:56.486Z,10.70
2023-05-02T03:19:29.228Z,10.70
2023-05-02T03:20:01.271Z,10.70
2023-05-02T03:20:33.190Z,10.70
2023-05-02T03:21:06.209Z,10.70
2023-05-02T03:21:37.969Z,10.70
2023-05-02T03:22:10.778Z,10.70
2023-05-02T03:22:42.563Z,10.70
2023-05-02T03:23:14.320Z,10.70
2023-05-02T03:23:47.063Z,10.80
2023-05-02T03:24:19.494Z,10.70
2023-05-02T03:24:52.314Z,10.80
2023-05-02T03:25:24.184Z,10.70
2023-05-02T03:25:56.106Z,10.70
2023-05-02T03:26:28.657Z,10.70
2023-05-02T03:27:01.398Z,10.70
2023-05-02T03:27:33.325Z,10.70
2023-05-02T03:28:05.607Z,10.70
2023-05-02T03:28:37.495Z,10.70
2023-05-02T03:29:10.746Z,10.80
2023-05-02T03:29:42.555Z,10.70
2023-05-02T03:30:14.366Z,10.80
2023-05-02T03:30:46.163Z,10.70
2023-05-02T03:31:18.946Z,10.70
2023-05-02T03:31:50.952Z,10.70
2023-05-02T03:32:24.141Z,10.70
2023-05-02T03:32:56.912Z,10.80
2023-05-02T03:33:28.784Z,10.60
2023-05-02T03:34:00.946Z,10.60
2023-05-02T03:34:33.707Z,10.60
2023-05-02T03:35:06.276Z,10.60
2023-05-02T03:35:38.066Z,10.60
2023-05-02T03:36:11.041Z,10.70
2023-05-02T03:36:42.852Z,10.60
2023-05-02T03:37:15.019Z,10.60
2023-05-02T03:37:47.772Z,10.60
2023-05-02T03:38:19.594Z,10.60
2023-05-02T03:38:51.470Z,10.60
2023-05-02T03:39:24.248Z,10.60
2023-05-02T03:39:56.180Z,10.50
2023-05-02T03:40:28.058Z,10.50
2023-05-02T03:41:00.002Z,10.50
2023-05-02T03:41:32.867Z,10.50
2023-05-02T03:42:05.633Z,10.50
2023-05-02T03:42:41.029Z,10.60
2023-05-02T03:43:12.806Z,10.60
2023-05-02T03:43:44.641Z,10.60
2023-05-02T03:44:17.483Z,10.60
2023-05-02T03:44:52.611Z,10.50
2023-05-02T03:45:24.390Z,10.50
2023-05-02T03:45:56.221Z,10.40
2023-05-02T03:46:29.003Z,10.40
2023-05-02T03:47:00.962Z,10.40
2023-05-02T03:47:34.340Z,10.50
2023-05-02T03:48:07.309Z,10.50
2023-05-02T03:48:39.185Z,10.50
2023-05-02T03:49:10.979Z,10.50
2023-05-02T03:49:43.808Z,10.50
2023-05-02T03:50:15.812Z,10.50
2023-05-02T03:50:47.941Z,10.50
2023-05-02T03:51:20.703Z,10.50
2023-05-02T03:51:52.485Z,10.50
2023-05-02T03:52:25.468Z,10.50
2023-05-02T03:52:57.923Z,10.50
2023-05-02T03:53:30.537Z,10.50
2023-05-02T03:54:03.429Z,10.50
2023-05-02T03:54:35.756Z,10.50
2023-05-02T03:55:08.163Z,10.50
2023-05-02T03:55:41.552Z,10.50
2023-05-02T03:56:19.943Z,10.50
2023-05-02T03:56:53.386Z,10.50
2023-05-02T03:57:26.156Z,10.50
2023-05-02T03:57:57.930Z,10.50
2023-05-02T03:58:29.779Z,10.60
2023-05-02T03:59:02.627Z,10.50
2023-05-02T03:59:34.903Z,10.50
2023-05-02T04:00:08.172Z,10.50
2023-05-02T04:00:41.142Z,10.50
2023-05-02T04:01:16.708Z,10.60
2023-05-02T04:01:49.795Z,10.60
2023-05-02T04:02:22.782Z,10.60
2023-05-02T04:02:56.514Z,10.60
2023-05-02T04:03:31.154Z,10.60
2023-05-02T04:04:03.986Z,10.60
2023-05-02T04:04:36.224Z,10.50
2023-05-02T04:05:08.615Z,10.60
2023-05-02T04:05:41.422Z,10.60
2023-05-02T04:06:13.479Z,10.50
2023-05-02T04:06:46.476Z,10.50
2023-05-02T04:07:19.371Z,10.50
2023-05-02T04:07:51.437Z,10.50
2023-05-02T04:08:24.200Z,10.50
2023-05-02T04:08:56.071Z,10.50
2023-05-02T04:09:27.871Z,10.50
2023-05-02T04:10:00.858Z,10.50
2023-05-02T04:10:33.008Z,10.50
2023-05-02T04:11:04.903Z,10.50
2023-05-02T04:11:37.680Z,10.50
2023-05-02T04:12:09.559Z,10.50
2023-05-02T04:12:41.386Z,10.50
2023-05-02T04:13:14.176Z,10.50
2023-05-02T04:13:46.068Z,10.50
2023-05-02T04:14:17.918Z,10.50
2023-05-02T04:14:50.784Z,10.50
2023-05-02T04:15:22.578Z,10.50
2023-05-02T04:15:54.386Z,10.50
2023-05-02T04:16:27.194Z,10.50
2023-05-02T04:16:59.019Z,10.50
2023-05-02T04:17:30.870Z,10.60
2023-05-02T04:18:05.184Z,10.60
2023-05-02T04:18:37.005Z,10.60
2023-05-02T04:19:08.810Z,10.60
2023-05-02T04:19:41.569Z,10.60
2023-05-02T04:20:13.718Z,10.60
2023-05-02T04:20:45.634Z,10.60
2023-05-02T04:21:18.396Z,10.60
2023-05-02T04:21:50.292Z,10.60
2023-05-02T04:22:22.061Z,10.60
2023-05-02T04:22:53.853Z,10.60
2023-05-02T04:23:26.617Z,10.60
2023-05-02T04:23:58.693Z,10.60
2023-05-02T04:24:31.506Z,10.70
2023-05-02T04:25:03.539Z,10.70
2023-05-02T04:25:35.537Z,10.60
2023-05-02T04:26:08.295Z,10.60
2023-05-02T04:26:40.077Z,10.60
2023-05-02T04:27:14.484Z,10.60
2023-05-02T04:27:47.209Z,10.60
2023-05-02T04:28:19.989Z,10.60
2023-05-02T04:28:51.779Z,10.70
2023-05-02T04:29:23.621Z,10.70
2023-05-02T04:29:56.384Z,10.70
2023-05-02T04:30:28.280Z,10.70
2023-05-02T04:31:00.218Z,10.70
2023-05-02T04:31:33.433Z,10.60
2023-05-02T04:32:05.585Z,10.60
2023-05-02T04:32:37.924Z,10.50
2023-05-02T04:33:12.131Z,10.50
2023-05-02T04:33:43.993Z,10.50
2023-05-02T04:34:15.843Z,10.50
2023-05-02T04:34:48.579Z,10.50
2023-05-02T04:35:20.566Z,10.50
2023-05-02T04:35:52.874Z,10.50
2023-05-02T04:36:26.153Z,10.50
2023-05-02T04:36:57.954Z,10.50
2023-05-02T04:37:29.790Z,10.40
2023-05-02T04:38:02.534Z,10.40
2023-05-02T04:38:34.428Z,10.50
2023-05-02T04:39:07.641Z,10.50
2023-05-02T04:39:40.417Z,10.50
2023-05-02T04:40:13.296Z,10.40
2023-05-02T04:40:46.174Z,10.40
2023-05-02T04:41:18.223Z,10.40
2023-05-02T04:41:50.196Z,10.40
2023-05-02T04:42:22.956Z,10.50
2023-05-02T04:42:54.716Z,10.50
2023-05-02T04:43:27.451Z,10.50
2023-05-02T04:43:59.287Z,10.40
2023-05-02T04:44:31.201Z,10.50
2023-05-02T04:45:04.171Z,10.50
2023-05-02T04:45:36.532Z,10.50
2023-05-02T04:46:08.463Z,10.50
2023-05-02T04:46:41.280Z,10.50
2023-05-02T04:47:13.106Z,10.50
2023-05-02T04:47:45.010Z,10.50
2023-05-02T04:48:19.196Z,10.50
2023-05-02T04:48:51.029Z,10.60
2023-05-02T04:49:22.896Z,10.50
2023-05-02T04:49:55.622Z,10.50
2023-05-02T04:50:28.375Z,10.50
2023-05-02T04:51:00.168Z,10.50
2023-05-02T04:51:33.194Z,10.50
2023-05-02T04:52:05.912Z,10.50
2023-05-02T04:52:37.946Z,10.50
2023-05-02T04:53:11.090Z,10.50
2023-05-02T04:53:42.868Z,10.60
2023-05-02T04:54:15.619Z,10.50
2023-05-02T04:54:48.414Z,10.50
2023-05-02T04:55:20.412Z,10.50
2023-05-02T04:55:53.166Z,10.60
2023-05-02T04:56:25.444Z,10.60
2023-05-02T04:56:57.322Z,10.60
2023-05-02T04:57:30.107Z,10.60
2023-05-02T04:58:01.919Z,10.50
2023-05-02T04:58:35.146Z,10.50
2023-05-02T04:59:07.974Z,10.50
2023-05-02T04:59:39.766Z,10.50
2023-05-02T05:00:12.658Z,10.50
2023-05-02T05:00:45.456Z,10.50
2023-05-02T05:01:17.993Z,10.50
2023-05-02T05:01:50.726Z,10.50
2023-05-02T05:02:25.685Z,10.50
2023-05-02T05:02:59.258Z,10.50
2023-05-02T05:03:35.092Z,10.50
2023-05-02T05:04:07.087Z,10.60
2023-05-02T05:04:39.128Z,10.60
2023-05-02T05:05:11.898Z,10.60
2023-05-02T05:05:43.885Z,10.60
2023-05-02T05:06:16.786Z,10.60
2023-05-02T05:06:49.210Z,10.50
2023-05-02T05:07:21.171Z,10.50
2023-05-02T05:07:54.017Z,10.50
2023-05-02T05:08:25.946Z,10.50
2023-05-02T05:08:57.868Z,10.60
2023-05-02T05:09:30.600Z,10.60
2023-05-02T05:10:02.783Z,10.60
2023-05-02T05:10:35.631Z,10.70
2023-05-02T05:11:08.474Z,10.70
2023-05-02T05:11:41.739Z,10.70
2023-05-02T05:12:13.558Z,10.70
2023-05-02T05:12:46.405Z,10.70
2023-05-02T05:13:18.242Z,10.60
2023-05-02T05:13:50.243Z,10.70
2023-05-02T05:14:24.205Z,10.70
2023-05-02T05:14:55.951Z,10.70
2023-05-02T05:15:27.939Z,10.70
2023-05-02T05:16:00.707Z,10.70
2023-05-02T05:16:32.635Z,10.80
2023-05-02T05:17:04.471Z,10.80
2023-05-02T05:17:36.296Z,10.80
2023-05-02T05:18:09.185Z,10.80
2023-05-02T05:18:42.476Z,10.90
2023-05-02T05:19:14.302Z,10.90
2023-05-02T05:19:47.114Z,10.90
2023-05-02T05:20:19.753Z,10.80
2023-05-02T05:20:52.555Z,10.80
2023-05-02T05:21:24.391Z,10.90
2023-05-02T05:21:56.229Z,10.80
2023-05-02T05:22:29.003Z,11.00
2023-05-02T05:23:00.794Z,10.80
2023-05-02T05:23:33.528Z,10.80
2023-05-02T05:24:06.217Z,10.80
2023-05-02T05:24:39.147Z,10.90
2023-05-02T05:25:11.795Z,10.90
2023-05-02T05:25:45.610Z,10.90
2023-05-02T05:26:18.902Z,10.90
2023-05-02T05:26:50.698Z,10.90
2023-05-02T05:27:22.726Z,11.00
2023-05-02T05:27:56.261Z,11.00
2023-05-02T05:28:28.075Z,11.00
2023-05-02T05:28:59.950Z,11.00
2023-05-02T05:29:33.525Z,11.00
2023-05-02T05:30:06.392Z,10.90
2023-05-02T05:30:38.229Z,10.90
2023-05-02T05:31:14.504Z,10.90
2023-05-02T05:31:47.920Z,10.90
2023-05-02T05:32:21.914Z,10.90
2023-05-02T05:32:53.792Z,10.90
2023-05-02T05:33:25.752Z,10.90
2023-05-02T05:34:01.210Z,10.90
2023-05-02T05:34:33.120Z,11.00
2023-05-02T05:35:05.854Z,11.00
2023-05-02T05:35:38.706Z,11.00
2023-05-02T05:36:12.043Z,11.10
2023-05-02T05:36:44.028Z,11.10
2023-05-02T05:37:16.873Z,11.10
2023-05-02T05:37:48.675Z,11.10
2023-05-02T05:38:20.498Z,11.10
2023-05-02T05:38:53.248Z,11.10
2023-05-02T05:39:25.415Z,11.10
2023-05-02T05:39:57.413Z,11.10
2023-05-02T05:40:30.442Z,11.00
2023-05-02T05:41:02.602Z,11.00
2023-05-02T05:41:35.194Z,11.00
2023-05-02T05:42:09.657Z,11.00
2023-05-02T05:42:41.427Z,11.00
2023-05-02T05:43:13.299Z,11.00
2023-05-02T05:43:46.132Z,11.00
2023-05-02T05:44:18.026Z,11.00
2023-05-02T05:44:49.835Z,11.00
2023-05-02T05:45:22.586Z,10.90
2023-05-02T05:45:54.849Z,10.90
2023-05-02T05:46:27.717Z,10.90
2023-05-02T05:46:59.604Z,10.90
2023-05-02T05:47:31.627Z,10.90
2023-05-02T05:48:04.716Z,10.90
2023-05-02T05:48:36.814Z,10.90
2023-05-02T05:49:12.447Z,10.90
2023-05-02T05:49:44.252Z,10.90
2023-05-02T05:50:16.156Z,10.80
2023-05-02T05:50:49.157Z,10.80
2023-05-02T05:51:20.980Z,10.80
2023-05-02T05:51:53.763Z,10.80
2023-05-02T05:52:25.728Z,10.80
2023-05-02T05:52:57.540Z,10.80
2023-05-02T05:53:30.315Z,10.90
2023-05-02T05:54:02.182Z,10.90
2023-05-02T05:54:33.982Z,10.90
2023-05-02T05:55:07.937Z,10.90
2023-05-02T05:55:42.169Z,10.90
2023-05-02T05:56:14.551Z,10.90
2023-05-02T05:56:47.322Z,10.90
2023-05-02T05:57:19.119Z,10.90
2023-05-02T05:57:51.115Z,11.00
2023-05-02T05:58:23.905Z,10.90
2023-05-02T05:58:55.739Z,11.00
2023-05-02T05:59:28.489Z,11.00
2023-05-02T06:00:00.759Z,11.00
2023-05-02T06:00:34.662Z,11.00
2023-05-02T06:01:07.693Z,11.00
2023-05-02T06:01:39.574Z,11.00
2023-05-02T06:02:11.450Z,11.00
2023-05-02T06:02:44.320Z,11.00
2023-05-02T06:03:16.882Z,11.00
2023-05-02T06:03:49.907Z,11.00
2023-05-02T06:04:23.305Z,11.00
2023-05-02T06:04:56.139Z,11.00
2023-05-02T06:05:28.318Z,11.00
2023-05-02T06:06:00.340Z,11.00
2023-05-02T06:06:33.225Z,11.00
2023-05-02T06:07:05.130Z,11.00
2023-05-02T06:07:37.875Z,11.00
2023-05-02T06:08:09.750Z,11.00
2023-05-02T06:08:42.510Z,11.00
2023-05-02T06:09:14.328Z,11.00
2023-05-02T06:09:46.175Z,11.00
2023-05-02T06:10:19.163Z,11.00
2023-05-02T06:10:50.972Z,11.00
2023-05-02T06:11:24.341Z,11.00
2023-05-02T06:11:57.131Z,11.00
2023-05-02T06:12:28.911Z,10.90
2023-05-02T06:13:01.736Z,10.90
2023-05-02T06:13:33.529Z,10.90
2023-05-02T06:14:06.522Z,10.90
2023-05-02T06:14:38.375Z,11.00
2023-05-02T06:15:10.519Z,11.00
2023-05-02T06:15:43.281Z,11.00
2023-05-02T06:16:15.205Z,11.00
2023-05-02T06:16:47.019Z,11.00
2023-05-02T06:17:19.797Z,11.00
2023-05-02T06:17:51.845Z,11.10
2023-05-02T06:18:24.669Z,11.00
2023-05-02T06:18:56.556Z,11.10
2023-05-02T06:19:29.696Z,11.10
2023-05-02T06:20:02.653Z,11.10
2023-05-02T06:20:35.977Z,11.20
2023-05-02T06:21:08.979Z,11.10
2023-05-02T06:21:40.826Z,11.10
2023-05-02T06:22:12.938Z,11.20
2023-05-02T06:22:46.079Z,11.20
2023-05-02T06:23:17.865Z,11.20
2023-05-02T06:23:49.638Z,11.20
2023-05-02T06:24:22.444Z,11.40
2023-05-02T06:24:54.254Z,11.30
2023-05-02T06:25:26.096Z,11.30
2023-05-02T06:26:01.126Z,11.30
2023-05-02T06:26:32.974Z,11.40
2023-05-02T06:27:04.787Z,11.40
2023-05-02T06:27:37.578Z,11.40
2023-05-02T06:28:09.478Z,11.40
2023-05-02T06:28:41.301Z,11.30
2023-05-02T06:29:14.851Z,11.30
2023-05-02T06:29:46.658Z,11.30
2023-05-02T06:30:19.407Z,11.30
2023-05-02T06:30:57.631Z,11.20
2023-05-02T06:31:30.556Z,11.30
2023-05-02T06:32:02.444Z,11.30
2023-05-02T06:32:34.324Z,11.30
2023-05-02T06:33:07.495Z,11.30
2023-05-02T06:33:39.380Z,11.30
2023-05-02T06:34:12.180Z,11.40
2023-05-02T06:34:45.542Z,11.40
2023-05-02T06:35:17.537Z,11.40
2023-05-02T06:35:52.786Z,11.40
2023-05-02T06:36:24.618Z,11.50
2023-05-02T06:36:57.469Z,11.50
2023-05-02T06:37:33.706Z,11.60
2023-05-02T06:38:06.464Z,11.60
2023-05-02T06:38:38.255Z,11.70
2023-05-02T06:39:11.554Z,11.70
2023-05-02T06:39:43.400Z,11.70
2023-05-02T06:40:16.432Z,11.70
2023-05-02T06:40:48.418Z,11.70
2023-05-02T06:41:22.019Z,11.70
2023-05-02T06:41:57.005Z,11.70
2023-05-02T06:42:29.384Z,11.70
2023-05-02T06:43:02.108Z,11.60
2023-05-02T06:43:33.932Z,11.60
2023-05-02T06:44:05.854Z,11.60
2023-05-02T06:44:38.595Z,11.60
2023-05-02T06:45:11.188Z,11.60
2023-05-02T06:45:43.293Z,11.60
2023-05-02T06:46:16.104Z,11.60
2023-05-02T06:46:47.962Z,11.60
2023-05-02T06:47:19.817Z,11.70
2023-05-02T06:47:52.668Z,11.70
2023-05-02T06:48:24.667Z,11.80
2023-05-02T06:48:57.501Z,11.80
2023-05-02T06:49:29.537Z,11.80
2023-05-02T06:50:03.228Z,11.90
2023-05-02T06:50:36.251Z,11.90
2023-05-02T06:51:08.028Z,12.00
2023-05-02T06:51:40.757Z,12.00
2023-05-02T06:52:12.557Z,12.00
2023-05-02T06:52:44.351Z,12.00
2023-05-02T06:53:17.135Z,12.00
2023-05-02T06:53:48.922Z,12.00
2023-05-02T06:54:21.979Z,12.00
2023-05-02T06:54:53.790Z,12.00
2023-05-02T06:55:25.654Z,12.10
2023-05-02T06:55:58.799Z,12.00
2023-05-02T06:56:31.182Z,12.10
2023-05-02T06:57:03.131Z,12.10
2023-05-02T06:57:35.876Z,12.10
2023-05-02T06:58:08.210Z,12.10
2023-05-02T06:58:40.993Z,12.10
2023-05-02T06:59:12.991Z,12.10
2023-05-02T06:59:44.805Z,12.10
2023-05-02T07:00:18.538Z,12.10
2023-05-02T07:00:50.548Z,12.20
2023-05-02T07:01:23.375Z,12.20
2023-05-02T07:01:55.344Z,12.20
2023-05-02T07:02:28.120Z,12.30
2023-05-02T07:03:00.007Z,12.40
2023-05-02T07:03:31.873Z,12.30
2023-05-02T07:04:05.768Z,12.20
2023-05-02T07:04:37.697Z,12.20
2023-05-02T07:05:11.844Z,12.20
2023-05-02T07:05:43.660Z,12.20
2023-05-02T07:06:15.819Z,12.20
2023-05-02T07:06:48.689Z,12.20
2023-05-02T07:07:22.008Z,12.30
2023-05-02T07:07:53.786Z,12.30
2023-05-02T07:08:26.570Z,12.30
2023-05-02T07:08:58.552Z,12.30
2023-05-02T07:09:31.331Z,12.40
2023-05-02T07:10:03.399Z,12.40
2023-05-02T07:10:36.497Z,12.30
2023-05-02T07:11:08.351Z,12.30
2023-05-02T07:11:41.086Z,12.30
2023-05-02T07:12:12.926Z,12.30
2023-05-02T07:12:45.685Z,12.30
2023-05-02T07:13:17.508Z,12.30
2023-05-02T07:13:49.532Z,12.20
2023-05-02T07:14:22.541Z,12.20